This is the latest recevied weather packets stored in our database for station/object W6UA-13. If no packets are shown the sender has not sent any weather packets the latest 10 day(s).
| Time | Temp. | Humidity | Pressure | Rain* | Wind** | Luminosity | Snow |
|---|---|---|---|---|---|---|---|
| 1777310396 | 15.56° C | 66% | 1016.8 hPa | 0 mm | - | 504 W/m² | - |
| 1777308596 | 15.56° C | 62% | 1016.5 hPa | 0 mm | - | 482 W/m² | - |
| 1777306796 | 15° C | 67% | 1016.4 hPa | 0 mm | - | 492 W/m² | - |
| 1777305896 | 14.44° C | 68% | 1016.4 hPa | 0 mm | - | 441 W/m² | - |
| 1777304996 | 13.89° C | 69% | 1016.4 hPa | 0 mm | - | 401 W/m² | - |
| 1777304096 | 13.33° C | 73% | 1016.5 hPa | 0 mm | - | 309 W/m² | - |
| 1777300496 | 10.56° C | 85% | 1016 hPa | 0 mm | - | 72 W/m² | - |
| 1777299596 | 10.56° C | 86% | 1016 hPa | 0 mm | - | 47 W/m² | - |
| 1777298696 | 10° C | 87% | 1015.9 hPa | 0 mm | - | 35 W/m² | - |
| 1777296896 | 9.44° C | 87% | 1015.7 hPa | 0 mm | - | 12 W/m² | - |
| 1777295096 | 9.44° C | 87% | 1015.4 hPa | 0 mm | - | 0 W/m² | - |
| 1777294196 | 9.44° C | 87% | 1015.4 hPa | 0 mm | - | 0 W/m² | - |
| 1777293296 | 9.44° C | 87% | 1015.3 hPa | 0 mm | - | 0 W/m² | - |
| 1777292396 | 9.44° C | 88% | 1015.2 hPa | 0 mm | - | 0 W/m² | - |
| 1777291496 | 8.89° C | 88% | 1015.2 hPa | 0 mm | - | 0 W/m² | - |
| 1777290596 | 8.89° C | 88% | 1015.2 hPa | 0 mm | - | 0 W/m² | - |
| 1777289696 | 8.89° C | 88% | 1015.3 hPa | 0 mm | - | 0 W/m² | - |
| 1777287896 | 8.89° C | 88% | 1015.2 hPa | 0 mm | - | 0 W/m² | - |
| 1777286096 | 8.33° C | 88% | 1015 hPa | 0 mm | - | 0 W/m² | - |
| 1777285196 | 8.33° C | 88% | 1015 hPa | 0 mm | - | 0 W/m² | - |
| 1777281596 | 8.33° C | 88% | 1015.1 hPa | 0 mm | - | 0 W/m² | - |
| 1777280697 | 8.33° C | 88% | 1015.3 hPa | 0 mm | - | 0 W/m² | - |
| 1777279796 | 8.33° C | 88% | 1015.4 hPa | 0 mm | - | 0 W/m² | - |
| 1777278897 | 8.33° C | 88% | 1015.4 hPa | 0 mm | - | 0 W/m² | - |
| 1777277997 | 8.33° C | 87% | 1015.5 hPa | 0 mm | - | 0 W/m² | - |
* Rain latest hour (hover to see other rain measurements)
** Current wind speed in m/s (hover to see current wind gust speed)